sensor_id;sensor_type;location;lat;lon;timestamp;temperature;humidity
40534;DHT22;26233;51.894;10.192;2023-06-10T00:00:15;22.00;33.50
40534;DHT22;26233;51.894;10.192;2023-06-10T00:02:42;21.90;32.70
40534;DHT22;26233;51.894;10.192;2023-06-10T00:05:09;21.90;33.40
40534;DHT22;26233;51.894;10.192;2023-06-10T00:07:36;21.80;32.80
40534;DHT22;26233;51.894;10.192;2023-06-10T00:10:04;21.70;32.80
40534;DHT22;26233;51.894;10.192;2023-06-10T00:12:32;21.70;32.80
40534;DHT22;26233;51.894;10.192;2023-06-10T00:15:05;21.60;33.10
40534;DHT22;26233;51.894;10.192;2023-06-10T00:17:32;21.50;32.90
40534;DHT22;26233;51.894;10.192;2023-06-10T00:19:59;21.50;32.90
40534;DHT22;26233;51.894;10.192;2023-06-10T00:22:30;21.40;32.90
40534;DHT22;26233;51.894;10.192;2023-06-10T00:24:57;21.40;33.00
40534;DHT22;26233;51.894;10.192;2023-06-10T00:27:24;21.30;33.10
40534;DHT22;26233;51.894;10.192;2023-06-10T00:29:56;21.30;33.10
40534;DHT22;26233;51.894;10.192;2023-06-10T00:32:25;21.20;33.00
40534;DHT22;26233;51.894;10.192;2023-06-10T00:34:52;21.20;33.20
40534;DHT22;26233;51.894;10.192;2023-06-10T00:37:19;21.20;33.10
40534;DHT22;26233;51.894;10.192;2023-06-10T00:39:46;21.20;33.30
40534;DHT22;26233;51.894;10.192;2023-06-10T00:42:13;21.10;33.10
40534;DHT22;26233;51.894;10.192;2023-06-10T00:44:40;21.10;33.20
40534;DHT22;26233;51.894;10.192;2023-06-10T00:47:07;21.10;33.20
40534;DHT22;26233;51.894;10.192;2023-06-10T00:49:36;21.10;33.20
40534;DHT22;26233;51.894;10.192;2023-06-10T00:52:04;21.10;33.20
40534;DHT22;26233;51.894;10.192;2023-06-10T00:54:33;21.10;33.20
40534;DHT22;26233;51.894;10.192;2023-06-10T00:57:01;21.10;33.20
40534;DHT22;26233;51.894;10.192;2023-06-10T00:59:28;21.10;33.20
40534;DHT22;26233;51.894;10.192;2023-06-10T01:01:56;21.00;33.20
40534;DHT22;26233;51.894;10.192;2023-06-10T01:04:23;21.00;33.20
40534;DHT22;26233;51.894;10.192;2023-06-10T01:06:57;21.00;33.20
40534;DHT22;26233;51.894;10.192;2023-06-10T01:09:49;21.00;33.30
40534;DHT22;26233;51.894;10.192;2023-06-10T01:12:28;20.90;33.20
40534;DHT22;26233;51.894;10.192;2023-06-10T01:14:59;20.90;33.30
40534;DHT22;26233;51.894;10.192;2023-06-10T01:17:27;20.90;33.30
40534;DHT22;26233;51.894;10.192;2023-06-10T01:19:56;20.80;33.30
40534;DHT22;26233;51.894;10.192;2023-06-10T01:22:26;20.80;33.40
40534;DHT22;26233;51.894;10.192;2023-06-10T01:24:54;20.70;33.40
40534;DHT22;26233;51.894;10.192;2023-06-10T01:27:27;20.70;33.50
40534;DHT22;26233;51.894;10.192;2023-06-10T01:29:59;20.70;33.50
40534;DHT22;26233;51.894;10.192;2023-06-10T01:32:34;20.60;33.60
40534;DHT22;26233;51.894;10.192;2023-06-10T01:35:05;20.60;33.70
40534;DHT22;26233;51.894;10.192;2023-06-10T01:37:37;20.50;33.60
40534;DHT22;26233;51.894;10.192;2023-06-10T01:40:06;20.40;33.70
40534;DHT22;26233;51.894;10.192;2023-06-10T01:42:34;20.30;33.70
40534;DHT22;26233;51.894;10.192;2023-06-10T01:45:01;20.30;33.80
40534;DHT22;26233;51.894;10.192;2023-06-10T01:47:29;20.20;33.80
40534;DHT22;26233;51.894;10.192;2023-06-10T01:49:56;20.10;33.90
40534;DHT22;26233;51.894;10.192;2023-06-10T01:52:23;20.00;34.00
40534;DHT22;26233;51.894;10.192;2023-06-10T01:54:51;20.00;34.10
40534;DHT22;26233;51.894;10.192;2023-06-10T01:57:18;19.90;34.20
40534;DHT22;26233;51.894;10.192;2023-06-10T01:59:45;19.80;34.20
40534;DHT22;26233;51.894;10.192;2023-06-10T02:02:12;19.70;34.40
40534;DHT22;26233;51.894;10.192;2023-06-10T02:04:39;19.70;34.50
40534;DHT22;26233;51.894;10.192;2023-06-10T02:07:06;19.60;34.50
40534;DHT22;26233;51.894;10.192;2023-06-10T02:09:34;19.50;34.50
40534;DHT22;26233;51.894;10.192;2023-06-10T02:12:04;19.50;35.20
40534;DHT22;26233;51.894;10.192;2023-06-10T02:14:33;19.40;34.70
40534;DHT22;26233;51.894;10.192;2023-06-10T02:17:03;19.30;34.70
40534;DHT22;26233;51.894;10.192;2023-06-10T02:19:31;19.30;34.80
40534;DHT22;26233;51.894;10.192;2023-06-10T02:22:02;19.20;34.90
40534;DHT22;26233;51.894;10.192;2023-06-10T02:24:29;19.20;34.90
40534;DHT22;26233;51.894;10.192;2023-06-10T02:26:56;19.10;35.00
40534;DHT22;26233;51.894;10.192;2023-06-10T02:29:27;19.10;35.10
40534;DHT22;26233;51.894;10.192;2023-06-10T02:31:54;19.10;35.20
40534;DHT22;26233;51.894;10.192;2023-06-10T02:34:21;19.10;35.30
40534;DHT22;26233;51.894;10.192;2023-06-10T02:36:49;19.00;35.30
40534;DHT22;26233;51.894;10.192;2023-06-10T02:39:16;19.00;35.70
40534;DHT22;26233;51.894;10.192;2023-06-10T02:41:43;19.00;35.50
40534;DHT22;26233;51.894;10.192;2023-06-10T02:44:10;18.90;35.40
40534;DHT22;26233;51.894;10.192;2023-06-10T02:46:39;18.90;35.60
40534;DHT22;26233;51.894;10.192;2023-06-10T02:49:06;18.80;35.70
40534;DHT22;26233;51.894;10.192;2023-06-10T02:51:33;18.70;35.60
40534;DHT22;26233;51.894;10.192;2023-06-10T02:54:00;18.70;35.70
40534;DHT22;26233;51.894;10.192;2023-06-10T02:56:27;18.70;35.80
40534;DHT22;26233;51.894;10.192;2023-06-10T02:58:54;18.60;35.80
40534;DHT22;26233;51.894;10.192;2023-06-10T03:01:21;18.50;35.90
40534;DHT22;26233;51.894;10.192;2023-06-10T03:03:49;18.50;36.00
40534;DHT22;26233;51.894;10.192;2023-06-10T03:06:16;18.50;36.20
40534;DHT22;26233;51.894;10.192;2023-06-10T03:08:45;18.40;36.10
40534;DHT22;26233;51.894;10.192;2023-06-10T03:11:12;18.30;36.10
40534;DHT22;26233;51.894;10.192;2023-06-10T03:13:39;18.30;36.30
40534;DHT22;26233;51.894;10.192;2023-06-10T03:16:06;18.20;36.30
40534;DHT22;26233;51.894;10.192;2023-06-10T03:18:33;18.20;36.50
40534;DHT22;26233;51.894;10.192;2023-06-10T03:21:02;17.90;36.40
40534;DHT22;26233;51.894;10.192;2023-06-10T03:23:29;18.10;36.70
40534;DHT22;26233;51.894;10.192;2023-06-10T03:25:56;18.10;36.70
40534;DHT22;26233;51.894;10.192;2023-06-10T03:28:26;18.10;36.80
40534;DHT22;26233;51.894;10.192;2023-06-10T03:30:53;18.00;36.80
40534;DHT22;26233;51.894;10.192;2023-06-10T03:33:20;17.90;36.70
40534;DHT22;26233;51.894;10.192;2023-06-10T03:35:47;18.00;36.80
40534;DHT22;26233;51.894;10.192;2023-06-10T03:38:15;17.90;36.90
40534;DHT22;26233;51.894;10.192;2023-06-10T03:40:43;17.80;37.00
40534;DHT22;26233;51.894;10.192;2023-06-10T03:43:10;17.80;37.00
40534;DHT22;26233;51.894;10.192;2023-06-10T03:45:37;17.70;37.00
40534;DHT22;26233;51.894;10.192;2023-06-10T03:48:05;17.70;37.20
40534;DHT22;26233;51.894;10.192;2023-06-10T03:50:35;17.60;37.20
40534;DHT22;26233;51.894;10.192;2023-06-10T03:53:02;17.60;37.40
40534;DHT22;26233;51.894;10.192;2023-06-10T03:55:31;17.50;37.40
40534;DHT22;26233;51.894;10.192;2023-06-10T03:57:58;17.50;37.40
40534;DHT22;26233;51.894;10.192;2023-06-10T04:00:25;17.40;37.50
40534;DHT22;26233;51.894;10.192;2023-06-10T04:02:52;17.40;37.70
40534;DHT22;26233;51.894;10.192;2023-06-10T04:05:19;17.30;37.70
40534;DHT22;26233;51.894;10.192;2023-06-10T04:07:48;17.30;38.50
40534;DHT22;26233;51.894;10.192;2023-06-10T04:10:15;17.30;38.00
40534;DHT22;26233;51.894;10.192;2023-06-10T04:12:44;17.30;38.00
40534;DHT22;26233;51.894;10.192;2023-06-10T04:15:11;17.20;38.10
40534;DHT22;26233;51.894;10.192;2023-06-10T04:17:38;17.20;38.20
40534;DHT22;26233;51.894;10.192;2023-06-10T04:20:06;17.20;38.30
40534;DHT22;26233;51.894;10.192;2023-06-10T04:22:35;17.20;38.50
40534;DHT22;26233;51.894;10.192;2023-06-10T04:25:02;17.20;38.50
40534;DHT22;26233;51.894;10.192;2023-06-10T04:27:29;17.20;38.60
40534;DHT22;26233;51.894;10.192;2023-06-10T04:29:58;17.20;38.80
40534;DHT22;26233;51.894;10.192;2023-06-10T04:32:25;17.20;38.90
40534;DHT22;26233;51.894;10.192;2023-06-10T04:34:52;17.20;38.90
40534;DHT22;26233;51.894;10.192;2023-06-10T04:37:19;17.20;39.10
40534;DHT22;26233;51.894;10.192;2023-06-10T04:39:46;17.20;39.10
40534;DHT22;26233;51.894;10.192;2023-06-10T04:42:13;17.20;39.30
40534;DHT22;26233;51.894;10.192;2023-06-10T04:44:40;17.30;39.50
40534;DHT22;26233;51.894;10.192;2023-06-10T04:47:09;17.30;39.60
40534;DHT22;26233;51.894;10.192;2023-06-10T04:49:36;17.30;39.80
40534;DHT22;26233;51.894;10.192;2023-06-10T04:52:04;17.30;39.80
40534;DHT22;26233;51.894;10.192;2023-06-10T04:54:31;17.30;39.80
40534;DHT22;26233;51.894;10.192;2023-06-10T04:56:59;17.30;39.70
40534;DHT22;26233;51.894;10.192;2023-06-10T04:59:26;17.40;39.90
40534;DHT22;26233;51.894;10.192;2023-06-10T05:01:53;17.40;39.90
40534;DHT22;26233;51.894;10.192;2023-06-10T05:04:22;17.40;40.00
40534;DHT22;26233;51.894;10.192;2023-06-10T05:06:49;17.40;40.20
40534;DHT22;26233;51.894;10.192;2023-06-10T05:09:16;17.50;40.20
40534;DHT22;26233;51.894;10.192;2023-06-10T05:11:43;17.60;40.40
40534;DHT22;26233;51.894;10.192;2023-06-10T05:14:10;17.60;40.30
40534;DHT22;26233;51.894;10.192;2023-06-10T05:16:37;17.60;40.50
40534;DHT22;26233;51.894;10.192;2023-06-10T05:19:04;17.60;40.60
40534;DHT22;26233;51.894;10.192;2023-06-10T05:21:33;17.70;40.70
40534;DHT22;26233;51.894;10.192;2023-06-10T05:24:00;17.70;41.30
40534;DHT22;26233;51.894;10.192;2023-06-10T05:26:27;17.80;40.90
40534;DHT22;26233;51.894;10.192;2023-06-10T05:28:57;17.80;40.90
40534;DHT22;26233;51.894;10.192;2023-06-10T05:31:24;17.90;41.00
40534;DHT22;26233;51.894;10.192;2023-06-10T05:33:51;17.90;41.10
40534;DHT22;26233;51.894;10.192;2023-06-10T05:36:18;18.00;41.90
40534;DHT22;26233;51.894;10.192;2023-06-10T05:38:47;18.10;42.10
40534;DHT22;26233;51.894;10.192;2023-06-10T05:41:14;18.20;41.60
40534;DHT22;26233;51.894;10.192;2023-06-10T05:43:41;18.30;41.60
40534;DHT22;26233;51.894;10.192;2023-06-10T05:46:08;18.30;41.50
40534;DHT22;26233;51.894;10.192;2023-06-10T05:48:35;18.40;41.70
40534;DHT22;26233;51.894;10.192;2023-06-10T05:51:02;18.50;41.90
40534;DHT22;26233;51.894;10.192;2023-06-10T05:53:29;18.50;41.70
40534;DHT22;26233;51.894;10.192;2023-06-10T05:55:58;18.70;41.90
40534;DHT22;26233;51.894;10.192;2023-06-10T05:58:25;18.70;42.00
40534;DHT22;26233;51.894;10.192;2023-06-10T06:00:52;18.80;42.20
40534;DHT22;26233;51.894;10.192;2023-06-10T06:03:19;18.80;42.00
40534;DHT22;26233;51.894;10.192;2023-06-10T06:05:46;18.90;42.00
40534;DHT22;26233;51.894;10.192;2023-06-10T06:08:13;19.00;42.40
40534;DHT22;26233;51.894;10.192;2023-06-10T06:10:45;19.00;42.20
40534;DHT22;26233;51.894;10.192;2023-06-10T06:13:14;19.10;42.20
40534;DHT22;26233;51.894;10.192;2023-06-10T06:15:41;19.20;42.30
40534;DHT22;26233;51.894;10.192;2023-06-10T06:18:09;19.30;42.30
40534;DHT22;26233;51.894;10.192;2023-06-10T06:20:36;19.30;42.50
40534;DHT22;26233;51.894;10.192;2023-06-10T06:23:03;19.50;42.60
40534;DHT22;26233;51.894;10.192;2023-06-10T06:25:30;19.60;42.90
40534;DHT22;26233;51.894;10.192;2023-06-10T06:27:57;19.60;42.70
40534;DHT22;26233;51.894;10.192;2023-06-10T06:30:25;19.80;42.80
40534;DHT22;26233;51.894;10.192;2023-06-10T06:32:52;19.80;42.90
40534;DHT22;26233;51.894;10.192;2023-06-10T06:35:19;19.90;42.80
40534;DHT22;26233;51.894;10.192;2023-06-10T06:37:46;20.10;42.90
40534;DHT22;26233;51.894;10.192;2023-06-10T06:40:13;20.20;42.80
40534;DHT22;26233;51.894;10.192;2023-06-10T06:42:40;20.20;42.70
40534;DHT22;26233;51.894;10.192;2023-06-10T06:45:08;20.30;42.90
40534;DHT22;26233;51.894;10.192;2023-06-10T06:47:37;20.40;43.00
40534;DHT22;26233;51.894;10.192;2023-06-10T06:50:04;20.50;43.00
40534;DHT22;26233;51.894;10.192;2023-06-10T06:52:32;20.50;43.10
40534;DHT22;26233;51.894;10.192;2023-06-10T06:54:59;20.70;43.10
40534;DHT22;26233;51.894;10.192;2023-06-10T06:57:26;20.80;43.20
40534;DHT22;26233;51.894;10.192;2023-06-10T06:59:53;20.90;43.20
40534;DHT22;26233;51.894;10.192;2023-06-10T07:02:20;21.10;43.40
40534;DHT22;26233;51.894;10.192;2023-06-10T07:04:49;21.20;43.50
40534;DHT22;26233;51.894;10.192;2023-06-10T07:07:16;21.30;43.50
40534;DHT22;26233;51.894;10.192;2023-06-10T07:09:43;21.50;43.60
40534;DHT22;26233;51.894;10.192;2023-06-10T07:12:10;21.70;43.80
40534;DHT22;26233;51.894;10.192;2023-06-10T07:14:37;21.90;44.40
40534;DHT22;26233;51.894;10.192;2023-06-10T07:17:05;22.30;45.00
40534;DHT22;26233;51.894;10.192;2023-06-10T07:19:32;22.70;45.40
40534;DHT22;26233;51.894;10.192;2023-06-10T07:22:00;23.10;45.60
40534;DHT22;26233;51.894;10.192;2023-06-10T07:24:27;23.60;45.60
40534;DHT22;26233;51.894;10.192;2023-06-10T07:26:54;24.10;45.60
40534;DHT22;26233;51.894;10.192;2023-06-10T07:29:21;24.60;45.50
40534;DHT22;26233;51.894;10.192;2023-06-10T07:31:48;25.10;45.00
40534;DHT22;26233;51.894;10.192;2023-06-10T07:34:15;25.60;44.80
40534;DHT22;26233;51.894;10.192;2023-06-10T07:36:42;26.00;44.90
40534;DHT22;26233;51.894;10.192;2023-06-10T07:39:11;26.40;44.10
40534;DHT22;26233;51.894;10.192;2023-06-10T07:41:38;26.80;43.60
40534;DHT22;26233;51.894;10.192;2023-06-10T07:44:05;27.20;43.30
40534;DHT22;26233;51.894;10.192;2023-06-10T07:46:32;27.50;42.70
40534;DHT22;26233;51.894;10.192;2023-06-10T07:48:59;27.70;42.40
40534;DHT22;26233;51.894;10.192;2023-06-10T07:51:26;28.00;41.90
40534;DHT22;26233;51.894;10.192;2023-06-10T07:53:53;28.20;41.90
40534;DHT22;26233;51.894;10.192;2023-06-10T07:56:21;28.50;42.50
40534;DHT22;26233;51.894;10.192;2023-06-10T07:58:49;28.80;42.00
40534;DHT22;26233;51.894;10.192;2023-06-10T08:01:16;29.10;41.50
40534;DHT22;26233;51.894;10.192;2023-06-10T08:03:43;29.50;41.50
40534;DHT22;26233;51.894;10.192;2023-06-10T08:06:10;29.80;41.20
40534;DHT22;26233;51.894;10.192;2023-06-10T08:08:37;30.10;41.10
40534;DHT22;26233;51.894;10.192;2023-06-10T08:11:07;30.40;40.70
40534;DHT22;26233;51.894;10.192;2023-06-10T08:13:36;30.80;40.60
40534;DHT22;26233;51.894;10.192;2023-06-10T08:16:03;31.10;40.30
40534;DHT22;26233;51.894;10.192;2023-06-10T08:18:30;31.40;40.20
40534;DHT22;26233;51.894;10.192;2023-06-10T08:20:57;31.70;40.00
40534;DHT22;26233;51.894;10.192;2023-06-10T08:23:25;32.00;39.20
40534;DHT22;26233;51.894;10.192;2023-06-10T08:25:53;32.30;39.20
40534;DHT22;26233;51.894;10.192;2023-06-10T08:28:20;32.60;39.00
40534;DHT22;26233;51.894;10.192;2023-06-10T08:30:48;32.90;38.90
40534;DHT22;26233;51.894;10.192;2023-06-10T08:33:15;33.10;38.40
40534;DHT22;26233;51.894;10.192;2023-06-10T08:35:42;33.20;37.50
40534;DHT22;26233;51.894;10.192;2023-06-10T08:38:09;33.40;37.50
40534;DHT22;26233;51.894;10.192;2023-06-10T08:40:37;33.50;37.40
40534;DHT22;26233;51.894;10.192;2023-06-10T08:43:06;33.70;37.40
40534;DHT22;26233;51.894;10.192;2023-06-10T08:45:36;33.80;37.20
40534;DHT22;26233;51.894;10.192;2023-06-10T08:48:05;34.00;36.80
40534;DHT22;26233;51.894;10.192;2023-06-10T08:50:35;34.10;36.70
40534;DHT22;26233;51.894;10.192;2023-06-10T08:53:05;34.20;36.60
40534;DHT22;26233;51.894;10.192;2023-06-10T08:55:36;34.40;36.00
40534;DHT22;26233;51.894;10.192;2023-06-10T08:58:05;34.40;35.70
40534;DHT22;26233;51.894;10.192;2023-06-10T09:00:37;34.50;35.50
40534;DHT22;26233;51.894;10.192;2023-06-10T09:03:05;34.50;35.40
40534;DHT22;26233;51.894;10.192;2023-06-10T09:05:34;34.50;34.70
40534;DHT22;26233;51.894;10.192;2023-06-10T09:08:02;34.60;34.60
40534;DHT22;26233;51.894;10.192;2023-06-10T09:10:30;34.60;34.10
40534;DHT22;26233;51.894;10.192;2023-06-10T09:12:57;34.60;34.00
40534;DHT22;26233;51.894;10.192;2023-06-10T09:15:24;34.50;33.70
40534;DHT22;26233;51.894;10.192;2023-06-10T09:17:52;34.50;34.00
40534;DHT22;26233;51.894;10.192;2023-06-10T09:20:20;34.50;33.60
40534;DHT22;26233;51.894;10.192;2023-06-10T09:22:47;34.50;33.20
40534;DHT22;26233;51.894;10.192;2023-06-10T09:25:15;34.50;33.20
40534;DHT22;26233;51.894;10.192;2023-06-10T09:27:45;34.50;33.60
40534;DHT22;26233;51.894;10.192;2023-06-10T09:30:25;34.60;33.50
40534;DHT22;26233;51.894;10.192;2023-06-10T09:32:53;34.80;33.20
40534;DHT22;26233;51.894;10.192;2023-06-10T09:35:23;35.00;32.80
40534;DHT22;26233;51.894;10.192;2023-06-10T09:37:52;35.00;32.30
40534;DHT22;26233;51.894;10.192;2023-06-10T09:40:19;34.90;31.80
40534;DHT22;26233;51.894;10.192;2023-06-10T09:42:53;34.90;31.90
40534;DHT22;26233;51.894;10.192;2023-06-10T09:45:22;34.70;31.00
40534;DHT22;26233;51.894;10.192;2023-06-10T09:47:51;34.60;31.40
40534;DHT22;26233;51.894;10.192;2023-06-10T09:50:19;34.40;31.10
40534;DHT22;26233;51.894;10.192;2023-06-10T09:52:48;34.30;30.90
40534;DHT22;26233;51.894;10.192;2023-06-10T09:55:15;34.10;30.90
40534;DHT22;26233;51.894;10.192;2023-06-10T09:57:42;34.00;30.80
40534;DHT22;26233;51.894;10.192;2023-06-10T10:00:14;33.80;31.00
40534;DHT22;26233;51.894;10.192;2023-06-10T10:02:46;33.70;31.00
40534;DHT22;26233;51.894;10.192;2023-06-10T10:05:15;33.70;31.30
40534;DHT22;26233;51.894;10.192;2023-06-10T10:07:44;33.70;31.50
40534;DHT22;26233;51.894;10.192;2023-06-10T10:10:14;33.80;31.50
40534;DHT22;26233;51.894;10.192;2023-06-10T10:12:42;33.90;31.60
40534;DHT22;26233;51.894;10.192;2023-06-10T10:15:10;33.90;31.30
40534;DHT22;26233;51.894;10.192;2023-06-10T10:17:40;33.90;30.80
40534;DHT22;26233;51.894;10.192;2023-06-10T10:20:11;33.90;30.70
40534;DHT22;26233;51.894;10.192;2023-06-10T10:22:41;33.90;30.60
40534;DHT22;26233;51.894;10.192;2023-06-10T10:25:13;33.80;30.90
40534;DHT22;26233;51.894;10.192;2023-06-10T10:27:44;33.80;30.80
40534;DHT22;26233;51.894;10.192;2023-06-10T10:30:17;33.90;31.00
40534;DHT22;26233;51.894;10.192;2023-06-10T10:32:55;33.90;30.90
40534;DHT22;26233;51.894;10.192;2023-06-10T10:35:25;33.90;30.60
40534;DHT22;26233;51.894;10.192;2023-06-10T10:37:53;34.00;31.10
40534;DHT22;26233;51.894;10.192;2023-06-10T10:40:22;34.00;30.70
40534;DHT22;26233;51.894;10.192;2023-06-10T10:42:51;34.00;30.40
40534;DHT22;26233;51.894;10.192;2023-06-10T10:45:18;34.00;30.20
40534;DHT22;26233;51.894;10.192;2023-06-10T10:47:52;34.00;30.50
40534;DHT22;26233;51.894;10.192;2023-06-10T10:50:21;34.10;30.40
40534;DHT22;26233;51.894;10.192;2023-06-10T10:52:54;34.20;30.40
40534;DHT22;26233;51.894;10.192;2023-06-10T10:55:24;34.30;30.30
40534;DHT22;26233;51.894;10.192;2023-06-10T10:57:57;34.50;30.50
40534;DHT22;26233;51.894;10.192;2023-06-10T11:00:27;34.60;30.10
40534;DHT22;26233;51.894;10.192;2023-06-10T11:02:58;34.70;30.20
40534;DHT22;26233;51.894;10.192;2023-06-10T11:05:37;34.80;30.00
40534;DHT22;26233;51.894;10.192;2023-06-10T11:08:05;34.80;30.00
40534;DHT22;26233;51.894;10.192;2023-06-10T11:10:36;35.00;30.30
40534;DHT22;26233;51.894;10.192;2023-06-10T11:13:08;35.20;30.00
40534;DHT22;26233;51.894;10.192;2023-06-10T11:15:39;35.20;29.90
40534;DHT22;26233;51.894;10.192;2023-06-10T11:18:14;35.30;30.00
40534;DHT22;26233;51.894;10.192;2023-06-10T11:20:54;35.30;29.80
40534;DHT22;26233;51.894;10.192;2023-06-10T11:23:40;35.20;29.80
40534;DHT22;26233;51.894;10.192;2023-06-10T11:26:31;35.10;29.30
40534;DHT22;26233;51.894;10.192;2023-06-10T11:29:05;35.10;29.90
40534;DHT22;26233;51.894;10.192;2023-06-10T11:31:43;35.10;29.80
40534;DHT22;26233;51.894;10.192;2023-06-10T11:34:13;35.10;29.60
40534;DHT22;26233;51.894;10.192;2023-06-10T11:36:41;35.10;29.80
40534;DHT22;26233;51.894;10.192;2023-06-10T11:39:11;35.10;29.70
40534;DHT22;26233;51.894;10.192;2023-06-10T11:41:39;35.10;29.60
40534;DHT22;26233;51.894;10.192;2023-06-10T11:44:10;35.00;29.40
40534;DHT22;26233;51.894;10.192;2023-06-10T11:46:39;35.00;29.30
40534;DHT22;26233;51.894;10.192;2023-06-10T11:49:08;34.90;29.20
40534;DHT22;26233;51.894;10.192;2023-06-10T11:51:36;34.90;29.40
40534;DHT22;26233;51.894;10.192;2023-06-10T11:54:06;34.80;29.30
40534;DHT22;26233;51.894;10.192;2023-06-10T11:56:35;34.70;29.20
40534;DHT22;26233;51.894;10.192;2023-06-10T11:59:04;34.70;29.10
40534;DHT22;26233;51.894;10.192;2023-06-10T12:01:34;34.60;29.10
40534;DHT22;26233;51.894;10.192;2023-06-10T12:04:04;34.50;29.10
40534;DHT22;26233;51.894;10.192;2023-06-10T12:06:41;34.50;29.20
40534;DHT22;26233;51.894;10.192;2023-06-10T12:09:17;34.40;29.20
40534;DHT22;26233;51.894;10.192;2023-06-10T12:11:46;34.30;29.00
40534;DHT22;26233;51.894;10.192;2023-06-10T12:14:56;34.20;29.10
40534;DHT22;26233;51.894;10.192;2023-06-10T12:17:35;34.10;29.00
40534;DHT22;26233;51.894;10.192;2023-06-10T12:20:05;34.00;29.00
40534;DHT22;26233;51.894;10.192;2023-06-10T12:22:40;33.90;29.00
40534;DHT22;26233;51.894;10.192;2023-06-10T12:25:09;33.90;29.30
40534;DHT22;26233;51.894;10.192;2023-06-10T12:27:37;33.80;29.20
40534;DHT22;26233;51.894;10.192;2023-06-10T12:30:07;33.80;29.30
40534;DHT22;26233;51.894;10.192;2023-06-10T12:32:39;33.80;29.20
40534;DHT22;26233;51.894;10.192;2023-06-10T12:35:08;33.80;29.10
40534;DHT22;26233;51.894;10.192;2023-06-10T12:37:37;33.80;29.10
40534;DHT22;26233;51.894;10.192;2023-06-10T12:40:06;33.80;29.20
40534;DHT22;26233;51.894;10.192;2023-06-10T12:42:35;33.80;29.30
40534;DHT22;26233;51.894;10.192;2023-06-10T12:45:03;33.80;29.10
40534;DHT22;26233;51.894;10.192;2023-06-10T12:47:35;33.80;29.00
40534;DHT22;26233;51.894;10.192;2023-06-10T12:50:04;33.80;28.80
40534;DHT22;26233;51.894;10.192;2023-06-10T12:52:32;33.80;28.70
40534;DHT22;26233;51.894;10.192;2023-06-10T12:54:59;33.80;28.70
40534;DHT22;26233;51.894;10.192;2023-06-10T12:57:26;33.70;28.40
40534;DHT22;26233;51.894;10.192;2023-06-10T12:59:55;33.60;28.50
40534;DHT22;26233;51.894;10.192;2023-06-10T13:02:28;33.50;28.40
40534;DHT22;26233;51.894;10.192;2023-06-10T13:04:58;33.40;28.50
40534;DHT22;26233;51.894;10.192;2023-06-10T13:07:25;33.40;28.50
40534;DHT22;26233;51.894;10.192;2023-06-10T13:09:52;33.30;28.40
40534;DHT22;26233;51.894;10.192;2023-06-10T13:12:19;33.30;28.10
40534;DHT22;26233;51.894;10.192;2023-06-10T13:14:46;33.20;28.00
40534;DHT22;26233;51.894;10.192;2023-06-10T13:17:14;33.10;28.00
40534;DHT22;26233;51.894;10.192;2023-06-10T13:19:41;33.00;28.00
40534;DHT22;26233;51.894;10.192;2023-06-10T13:22:09;33.00;28.00
40534;DHT22;26233;51.894;10.192;2023-06-10T13:24:39;32.90;28.50
40534;DHT22;26233;51.894;10.192;2023-06-10T13:27:06;32.90;27.90
40534;DHT22;26233;51.894;10.192;2023-06-10T13:29:33;32.80;27.90
40534;DHT22;26233;51.894;10.192;2023-06-10T13:32:00;32.70;28.00
40534;DHT22;26233;51.894;10.192;2023-06-10T13:34:27;32.70;28.00
40534;DHT22;26233;51.894;10.192;2023-06-10T13:36:54;32.50;28.00
40534;DHT22;26233;51.894;10.192;2023-06-10T13:39:23;32.50;28.50
40534;DHT22;26233;51.894;10.192;2023-06-10T13:41:50;32.50;28.00
40534;DHT22;26233;51.894;10.192;2023-06-10T13:44:17;32.40;28.10
40534;DHT22;26233;51.894;10.192;2023-06-10T13:46:45;32.40;28.20
40534;DHT22;26233;51.894;10.192;2023-06-10T13:49:12;32.40;28.10
40534;DHT22;26233;51.894;10.192;2023-06-10T13:51:39;32.50;28.10
40534;DHT22;26233;51.894;10.192;2023-06-10T13:54:06;32.50;28.70
40534;DHT22;26233;51.894;10.192;2023-06-10T13:56:35;32.50;28.10
40534;DHT22;26233;51.894;10.192;2023-06-10T13:59:03;32.50;28.00
40534;DHT22;26233;51.894;10.192;2023-06-10T14:01:31;32.50;27.90
40534;DHT22;26233;51.894;10.192;2023-06-10T14:03:58;32.50;28.00
40534;DHT22;26233;51.894;10.192;2023-06-10T14:06:26;32.40;27.90
40534;DHT22;26233;51.894;10.192;2023-06-10T14:08:53;32.40;27.90
40534;DHT22;26233;51.894;10.192;2023-06-10T14:11:21;32.40;27.90
40534;DHT22;26233;51.894;10.192;2023-06-10T14:13:49;32.40;28.10
40534;DHT22;26233;51.894;10.192;2023-06-10T14:16:16;32.40;28.30
40534;DHT22;26233;51.894;10.192;2023-06-10T14:18:43;32.40;28.30
40534;DHT22;26233;51.894;10.192;2023-06-10T14:21:11;32.40;28.10
40534;DHT22;26233;51.894;10.192;2023-06-10T14:23:38;32.40;27.90
40534;DHT22;26233;51.894;10.192;2023-06-10T14:26:05;32.40;28.30
40534;DHT22;26233;51.894;10.192;2023-06-10T14:28:32;32.40;28.30
40534;DHT22;26233;51.894;10.192;2023-06-10T14:31:01;32.40;28.70
40534;DHT22;26233;51.894;10.192;2023-06-10T14:33:30;32.50;28.00
40534;DHT22;26233;51.894;10.192;2023-06-10T14:35:57;32.50;28.10
40534;DHT22;26233;51.894;10.192;2023-06-10T14:38:24;32.50;27.90
40534;DHT22;26233;51.894;10.192;2023-06-10T14:40:51;32.40;27.70
40534;DHT22;26233;51.894;10.192;2023-06-10T14:43:18;32.40;27.70
40534;DHT22;26233;51.894;10.192;2023-06-10T14:45:45;32.40;27.70
40534;DHT22;26233;51.894;10.192;2023-06-10T14:48:14;32.40;27.70
40534;DHT22;26233;51.894;10.192;2023-06-10T14:50:44;32.30;27.90
40534;DHT22;26233;51.894;10.192;2023-06-10T14:53:16;32.20;27.80
40534;DHT22;26233;51.894;10.192;2023-06-10T14:55:43;32.20;27.80
40534;DHT22;26233;51.894;10.192;2023-06-10T14:58:10;32.20;27.90
40534;DHT22;26233;51.894;10.192;2023-06-10T15:00:37;32.20;28.00
40534;DHT22;26233;51.894;10.192;2023-06-10T15:03:04;32.10;28.00
40534;DHT22;26233;51.894;10.192;2023-06-10T15:05:33;32.10;28.00
40534;DHT22;26233;51.894;10.192;2023-06-10T15:08:00;32.10;28.00
40534;DHT22;26233;51.894;10.192;2023-06-10T15:10:27;32.10;28.10
40534;DHT22;26233;51.894;10.192;2023-06-10T15:12:54;32.10;27.90
40534;DHT22;26233;51.894;10.192;2023-06-10T15:15:22;32.00;27.80
40534;DHT22;26233;51.894;10.192;2023-06-10T15:17:51;32.00;27.70
40534;DHT22;26233;51.894;10.192;2023-06-10T15:20:18;32.00;27.80
40534;DHT22;26233;51.894;10.192;2023-06-10T15:22:46;32.00;27.80